createdAt,value
2022-08-31T00:00:36.635Z,9.30
2022-08-31T00:03:24.383Z,12.05
2022-08-31T00:06:02.698Z,10.13
2022-08-31T00:08:31.231Z,12.25
2022-08-31T00:10:59.612Z,11.68
2022-08-31T00:13:29.847Z,16.92
2022-08-31T00:15:58.604Z,11.40
2022-08-31T00:18:26.936Z,11.32
2022-08-31T00:20:55.793Z,12.93
2022-08-31T00:23:24.071Z,10.65
2022-08-31T00:25:53.000Z,10.70
2022-08-31T00:28:21.309Z,9.52
2022-08-31T00:30:50.140Z,8.65
2022-08-31T00:33:18.615Z,12.20
2022-08-31T00:35:47.160Z,9.65
2022-08-31T00:38:15.694Z,8.45
2022-08-31T00:40:46.474Z,12.45
2022-08-31T00:43:54.296Z,12.52
2022-08-31T00:46:25.310Z,11.65
2022-08-31T00:48:57.026Z,13.80
2022-08-31T00:51:25.910Z,8.10
2022-08-31T00:53:54.350Z,8.93
2022-08-31T00:56:22.751Z,11.45
2022-08-31T00:58:54.467Z,11.45
2022-08-31T01:01:24.126Z,9.93
2022-08-31T01:03:52.685Z,10.80
2022-08-31T01:06:21.422Z,13.07
2022-08-31T01:08:49.698Z,13.82
2022-08-31T01:11:18.231Z,14.75
2022-08-31T01:13:46.622Z,12.45
2022-08-31T01:16:39.486Z,10.23
2022-08-31T01:19:18.079Z,9.40
2022-08-31T01:21:56.351Z,15.52
2022-08-31T01:24:25.541Z,11.25
2022-08-31T01:26:56.253Z,9.55
2022-08-31T01:29:24.714Z,13.10
2022-08-31T01:31:53.045Z,14.32
2022-08-31T01:34:21.367Z,13.13
2022-08-31T01:36:49.790Z,15.02
2022-08-31T01:39:19.918Z,13.10
2022-08-31T01:41:48.277Z,12.25
2022-08-31T01:44:18.903Z,10.63
2022-08-31T01:46:47.398Z,15.75
2022-08-31T01:49:16.433Z,10.85
2022-08-31T01:51:46.025Z,15.85
2022-08-31T01:54:14.400Z,9.15
2022-08-31T01:56:44.972Z,10.48
2022-08-31T01:59:18.909Z,9.82
2022-08-31T02:01:49.440Z,11.00
2022-08-31T02:04:19.410Z,11.23
2022-08-31T02:06:49.816Z,14.68
2022-08-31T02:09:20.134Z,10.05
2022-08-31T02:11:48.625Z,12.60
2022-08-31T02:14:20.204Z,12.50
2022-08-31T02:16:49.494Z,13.45
2022-08-31T02:19:17.892Z,15.02
2022-08-31T02:21:46.174Z,13.45
2022-08-31T02:24:14.684Z,13.23
2022-08-31T02:26:42.960Z,8.57
2022-08-31T02:29:11.981Z,11.93
2022-08-31T02:31:41.188Z,12.05
2022-08-31T02:34:09.551Z,12.68
2022-08-31T02:36:37.940Z,9.88
2022-08-31T02:39:07.299Z,10.75
2022-08-31T02:41:36.659Z,11.70
2022-08-31T02:44:05.801Z,12.93
2022-08-31T02:46:34.444Z,12.38
2022-08-31T02:49:41.035Z,14.98
2022-08-31T02:52:09.502Z,23.15
2022-08-31T02:54:38.254Z,40.22
2022-08-31T02:57:07.122Z,50.45
2022-08-31T02:59:35.412Z,53.67
2022-08-31T03:02:04.423Z,48.05
2022-08-31T03:04:33.071Z,36.55
2022-08-31T03:07:01.393Z,31.63
2022-08-31T03:09:29.799Z,26.52
2022-08-31T03:11:59.292Z,29.92
2022-08-31T03:14:27.759Z,54.47
2022-08-31T03:16:57.546Z,45.50
2022-08-31T03:19:26.396Z,43.67
2022-08-31T03:21:56.135Z,43.67
2022-08-31T03:24:27.375Z,35.95
2022-08-31T03:26:56.982Z,52.58
2022-08-31T03:29:25.958Z,27.10
2022-08-31T03:32:12.583Z,22.65
2022-08-31T03:34:44.362Z,27.45
2022-08-31T03:37:12.905Z,29.17
2022-08-31T03:39:42.304Z,19.98
2022-08-31T03:42:10.652Z,21.05
2022-08-31T03:44:39.119Z,15.65
2022-08-31T03:47:11.590Z,24.48
2022-08-31T03:49:43.487Z,20.65
2022-08-31T03:52:22.082Z,21.20
2022-08-31T03:55:00.613Z,18.80
2022-08-31T03:57:29.370Z,20.35
2022-08-31T03:59:57.922Z,21.88
2022-08-31T04:02:44.275Z,14.00
2022-08-31T04:05:33.619Z,28.55
2022-08-31T04:08:10.913Z,19.08
2022-08-31T04:10:58.446Z,16.88
2022-08-31T04:13:36.716Z,16.60
2022-08-31T04:16:28.230Z,28.95
2022-08-31T04:18:56.492Z,30.50
2022-08-31T04:21:26.145Z,20.55
2022-08-31T04:23:54.989Z,18.88
2022-08-31T04:26:24.556Z,19.10
2022-08-31T04:28:53.046Z,13.80
2022-08-31T04:31:21.671Z,14.05
2022-08-31T04:33:52.217Z,10.40
2022-08-31T04:36:22.081Z,13.85
2022-08-31T04:38:54.692Z,11.82
2022-08-31T04:41:24.396Z,17.95
2022-08-31T04:43:56.181Z,15.43
2022-08-31T04:46:26.002Z,14.73
2022-08-31T04:48:57.690Z,12.70
2022-08-31T04:51:31.368Z,19.52
2022-08-31T04:53:59.924Z,16.98
2022-08-31T04:56:32.590Z,17.33
2022-08-31T04:59:02.971Z,14.32
2022-08-31T05:01:42.487Z,15.43
2022-08-31T05:04:30.535Z,18.50
2022-08-31T05:06:59.876Z,15.68
2022-08-31T05:09:29.914Z,15.93
2022-08-31T05:11:58.460Z,18.35
2022-08-31T05:14:27.553Z,15.82
2022-08-31T05:17:09.826Z,14.20
2022-08-31T05:19:44.730Z,14.45
2022-08-31T05:22:16.206Z,11.95
2022-08-31T05:24:45.661Z,16.70
2022-08-31T05:27:14.450Z,15.57
2022-08-31T05:29:43.965Z,16.02
2022-08-31T05:32:30.958Z,15.85
2022-08-31T05:35:01.167Z,16.13
2022-08-31T05:37:30.169Z,17.15
2022-08-31T05:39:58.991Z,19.63
2022-08-31T05:42:27.937Z,15.55
2022-08-31T05:44:56.667Z,26.55
2022-08-31T05:47:25.768Z,16.98
2022-08-31T05:49:54.240Z,16.80
2022-08-31T05:52:25.375Z,14.82
2022-08-31T05:54:55.744Z,21.85
2022-08-31T05:57:26.685Z,17.10
2022-08-31T05:59:58.561Z,19.13
2022-08-31T06:02:29.421Z,15.15
2022-08-31T06:05:00.065Z,19.95
2022-08-31T06:07:28.737Z,17.17
2022-08-31T06:10:02.493Z,17.63
2022-08-31T06:12:34.634Z,17.13
2022-08-31T06:15:05.528Z,22.15
2022-08-31T06:17:35.476Z,15.05
2022-08-31T06:20:07.512Z,19.00
2022-08-31T06:22:36.219Z,20.80
2022-08-31T06:25:07.343Z,15.82
2022-08-31T06:27:39.032Z,18.08
2022-08-31T06:30:09.198Z,17.60
2022-08-31T06:32:37.571Z,16.65
2022-08-31T06:35:07.340Z,19.92
2022-08-31T06:38:01.631Z,19.42
2022-08-31T06:40:58.856Z,20.17
2022-08-31T06:43:43.442Z,19.27
2022-08-31T06:46:24.074Z,18.17
2022-08-31T06:49:11.606Z,19.58
2022-08-31T06:51:40.645Z,14.95
2022-08-31T06:54:29.786Z,18.38
2022-08-31T06:57:17.274Z,20.98
2022-08-31T06:59:55.208Z,17.98
2022-08-31T07:02:38.804Z,14.57
2022-08-31T07:05:07.453Z,15.70
2022-08-31T07:07:35.909Z,13.63
2022-08-31T07:10:05.970Z,15.20
2022-08-31T07:12:35.450Z,20.33
2022-08-31T07:15:04.222Z,15.32
2022-08-31T07:17:34.689Z,13.43
2022-08-31T07:20:06.107Z,14.65
2022-08-31T07:22:38.590Z,16.65
2022-08-31T07:25:29.662Z,13.40
2022-08-31T07:27:59.667Z,16.30
2022-08-31T07:30:33.190Z,11.68
2022-08-31T07:33:08.052Z,13.30
2022-08-31T07:35:41.074Z,14.10
2022-08-31T07:38:38.687Z,16.92
2022-08-31T07:41:29.731Z,18.95
2022-08-31T07:43:59.777Z,11.82
2022-08-31T07:46:32.430Z,15.10
2022-08-31T07:49:04.086Z,16.98
2022-08-31T07:51:51.301Z,14.00
2022-08-31T07:54:51.583Z,18.20
2022-08-31T07:57:37.192Z,17.38
2022-08-31T08:00:10.414Z,14.38
2022-08-31T08:02:53.339Z,13.60
2022-08-31T08:05:27.672Z,12.63
2022-08-31T08:08:23.114Z,12.60
2022-08-31T08:10:59.737Z,15.10
2022-08-31T08:13:49.327Z,13.73
2022-08-31T08:16:25.445Z,11.40
2022-08-31T08:19:18.374Z,12.40
2022-08-31T08:21:47.943Z,11.02
2022-08-31T08:24:24.590Z,10.02
2022-08-31T08:27:03.104Z,9.23
2022-08-31T08:29:51.160Z,13.13
2022-08-31T08:32:26.179Z,15.23
2022-08-31T08:34:58.356Z,10.38
2022-08-31T08:37:54.254Z,11.73
2022-08-31T08:40:42.873Z,12.35
2022-08-31T08:43:16.995Z,13.13
2022-08-31T08:45:48.833Z,11.80
2022-08-31T08:48:19.618Z,11.35
2022-08-31T08:50:49.107Z,12.57
2022-08-31T08:53:26.904Z,10.35
2022-08-31T08:56:23.357Z,12.52
2022-08-31T08:58:57.171Z,9.38
2022-08-31T09:01:32.318Z,10.55
2022-08-31T09:04:42.854Z,10.40
2022-08-31T09:08:11.504Z,9.60
2022-08-31T09:10:47.227Z,14.23
2022-08-31T09:13:33.099Z,10.23
2022-08-31T09:16:27.603Z,8.70
2022-08-31T09:19:01.654Z,12.02
2022-08-31T09:21:34.739Z,7.70
2022-08-31T09:24:14.765Z,9.05
2022-08-31T09:27:19.529Z,7.15
2022-08-31T09:29:56.472Z,9.90
2022-08-31T09:32:29.415Z,10.50
2022-08-31T09:35:25.087Z,8.20
2022-08-31T09:38:02.331Z,8.95
2022-08-31T09:40:44.580Z,12.75
2022-08-31T09:43:22.608Z,13.10
2022-08-31T09:46:01.574Z,8.15
2022-08-31T09:48:52.201Z,9.23
2022-08-31T09:51:29.896Z,8.93
2022-08-31T09:54:47.365Z,9.90
2022-08-31T09:57:16.020Z,14.50
2022-08-31T09:59:48.584Z,9.57
2022-08-31T10:02:23.582Z,7.78
2022-08-31T10:05:35.198Z,7.45
2022-08-31T10:08:22.163Z,7.80
2022-08-31T10:10:50.708Z,9.00
2022-08-31T10:13:39.786Z,9.07
2022-08-31T10:16:37.285Z,9.07
2022-08-31T10:19:11.472Z,13.00
2022-08-31T10:21:49.293Z,8.30
2022-08-31T10:24:38.493Z,11.43
2022-08-31T10:27:21.090Z,9.70
2022-08-31T10:29:56.819Z,7.78
2022-08-31T10:32:36.779Z,11.85
2022-08-31T10:35:15.172Z,9.50
2022-08-31T10:37:56.601Z,8.88
2022-08-31T10:40:32.373Z,9.45
2022-08-31T10:43:16.379Z,10.57
2022-08-31T10:45:52.595Z,7.63
2022-08-31T10:48:24.876Z,8.57
2022-08-31T10:51:06.098Z,9.50
2022-08-31T10:53:57.500Z,14.20
2022-08-31T10:56:37.490Z,8.68
2022-08-31T10:59:28.318Z,12.80
2022-08-31T11:02:27.798Z,10.48
2022-08-31T11:05:23.277Z,12.63
2022-08-31T11:08:15.445Z,9.50
2022-08-31T11:10:43.967Z,6.32
2022-08-31T11:13:38.893Z,4.53
2022-08-31T11:16:17.782Z,6.10
2022-08-31T11:19:10.269Z,5.97
2022-08-31T11:21:46.374Z,5.00
2022-08-31T11:24:56.294Z,4.18
2022-08-31T11:27:29.730Z,6.05
2022-08-31T11:30:09.080Z,5.05
2022-08-31T11:32:41.396Z,10.07
2022-08-31T11:35:10.957Z,4.68
2022-08-31T11:37:52.778Z,4.65
2022-08-31T11:40:45.702Z,14.18
2022-08-31T11:43:15.573Z,15.13
2022-08-31T11:45:44.147Z,17.00
2022-08-31T11:48:53.990Z,19.10
2022-08-31T11:51:41.961Z,12.15
2022-08-31T11:54:27.150Z,9.40
2022-08-31T11:56:57.227Z,8.05
2022-08-31T11:59:35.659Z,8.52
2022-08-31T12:02:20.686Z,12.80
2022-08-31T12:04:52.745Z,10.30
2022-08-31T12:07:49.356Z,10.98
2022-08-31T12:10:44.684Z,7.22
2022-08-31T12:13:24.475Z,14.57
2022-08-31T12:16:08.581Z,8.02
2022-08-31T12:19:48.993Z,7.05
2022-08-31T12:23:09.183Z,10.50
2022-08-31T12:26:01.210Z,9.65
2022-08-31T12:28:50.625Z,5.85
2022-08-31T12:31:19.753Z,10.48
2022-08-31T12:34:18.774Z,13.45
2022-08-31T12:36:53.246Z,12.55
2022-08-31T12:39:27.358Z,8.75
2022-08-31T12:42:00.180Z,8.02
2022-08-31T12:44:32.629Z,9.18
2022-08-31T12:47:29.320Z,9.18
2022-08-31T12:50:13.875Z,11.65
2022-08-31T12:53:04.629Z,11.75
2022-08-31T12:55:58.258Z,8.05
2022-08-31T12:58:27.340Z,7.60
2022-08-31T13:01:09.604Z,8.18
2022-08-31T13:03:41.564Z,10.48
2022-08-31T13:06:14.005Z,9.38
2022-08-31T13:09:06.553Z,9.90
2022-08-31T13:11:41.045Z,12.13
2022-08-31T13:14:21.078Z,8.15
2022-08-31T13:17:26.321Z,7.13
2022-08-31T13:19:56.959Z,18.02
2022-08-31T13:22:31.141Z,9.32
2022-08-31T13:25:36.314Z,13.57
2022-08-31T13:28:22.788Z,12.10
2022-08-31T13:31:05.669Z,10.30
2022-08-31T13:33:36.560Z,9.15
2022-08-31T13:36:24.377Z,8.77
2022-08-31T13:38:54.482Z,6.25
2022-08-31T13:41:36.212Z,9.23
2022-08-31T13:44:09.277Z,6.78
2022-08-31T13:46:43.833Z,9.93
2022-08-31T13:49:42.471Z,7.25
2022-08-31T13:52:29.438Z,10.88
2022-08-31T13:55:09.047Z,11.23
2022-08-31T13:57:38.817Z,9.45
2022-08-31T14:00:33.627Z,8.27
2022-08-31T14:03:46.816Z,9.65
2022-08-31T14:06:39.034Z,6.90
2022-08-31T14:09:17.737Z,8.40
2022-08-31T14:11:55.610Z,9.57
2022-08-31T14:14:30.097Z,7.32
2022-08-31T14:16:58.547Z,10.02
2022-08-31T14:19:36.785Z,9.70
2022-08-31T14:22:26.834Z,8.35
2022-08-31T14:24:56.870Z,8.70
2022-08-31T14:27:25.293Z,9.10
2022-08-31T14:29:55.652Z,10.30
2022-08-31T14:32:26.037Z,12.20
2022-08-31T14:34:54.435Z,7.10
2022-08-31T14:37:23.978Z,6.95
2022-08-31T14:39:55.464Z,10.40
2022-08-31T14:42:26.754Z,8.88
2022-08-31T14:44:59.858Z,7.53
2022-08-31T14:47:32.132Z,7.32
2022-08-31T14:50:06.007Z,12.10
2022-08-31T14:52:40.807Z,9.50
2022-08-31T14:55:11.485Z,11.85
2022-08-31T14:57:42.604Z,10.25
2022-08-31T15:00:13.295Z,10.63
2022-08-31T15:02:42.282Z,13.90
2022-08-31T15:05:11.059Z,9.13
2022-08-31T15:07:40.617Z,11.80
2022-08-31T15:10:13.262Z,8.32
2022-08-31T15:12:44.916Z,13.65
2022-08-31T15:15:21.405Z,9.18
2022-08-31T15:17:51.742Z,11.82
2022-08-31T15:20:21.886Z,7.75
2022-08-31T15:22:50.471Z,10.80
2022-08-31T15:25:21.092Z,11.00
2022-08-31T15:27:51.915Z,9.95
2022-08-31T15:30:21.371Z,10.32
2022-08-31T15:32:50.461Z,9.43
2022-08-31T15:35:25.034Z,11.30
2022-08-31T15:37:59.076Z,8.45
2022-08-31T15:40:29.729Z,11.88
2022-08-31T15:43:01.581Z,9.13
2022-08-31T15:45:31.182Z,11.88
2022-08-31T15:48:18.515Z,10.93
2022-08-31T15:50:51.999Z,11.75
2022-08-31T15:53:30.861Z,11.88
2022-08-31T15:56:08.593Z,11.98
2022-08-31T15:58:39.336Z,17.90
2022-08-31T16:01:14.292Z,13.63
2022-08-31T16:03:43.898Z,12.93
2022-08-31T16:06:12.204Z,16.25
2022-08-31T16:08:41.544Z,13.05
2022-08-31T16:11:13.783Z,12.18
2022-08-31T16:13:59.994Z,12.55
2022-08-31T16:16:35.577Z,14.90
2022-08-31T16:19:05.268Z,12.10
2022-08-31T16:21:37.094Z,13.02
2022-08-31T16:24:08.765Z,11.38
2022-08-31T16:26:38.966Z,9.15
2022-08-31T16:29:09.433Z,11.02
2022-08-31T16:31:39.044Z,11.45
2022-08-31T16:34:07.472Z,12.02
2022-08-31T16:36:36.536Z,13.55
2022-08-31T16:39:05.851Z,10.00
2022-08-31T16:41:39.111Z,11.07
2022-08-31T16:44:19.699Z,13.07
2022-08-31T16:46:49.672Z,21.23
2022-08-31T16:49:36.954Z,13.25
2022-08-31T16:52:18.413Z,15.63
2022-08-31T16:54:49.415Z,19.35
2022-08-31T16:57:21.037Z,13.38
2022-08-31T16:59:49.723Z,11.45
2022-08-31T17:02:20.051Z,9.80
2022-08-31T17:04:52.993Z,12.82
2022-08-31T17:07:24.704Z,17.25
2022-08-31T17:09:57.965Z,21.85
2022-08-31T17:12:27.632Z,21.25
2022-08-31T17:14:59.397Z,20.17
2022-08-31T17:17:31.104Z,21.25
2022-08-31T17:20:01.142Z,21.83
2022-08-31T17:22:34.016Z,17.38
2022-08-31T17:25:04.871Z,14.35
2022-08-31T17:27:34.576Z,15.63
2022-08-31T17:30:06.381Z,23.10
2022-08-31T17:32:39.385Z,12.35
2022-08-31T17:35:19.114Z,15.60
2022-08-31T17:37:50.457Z,17.23
2022-08-31T17:40:20.203Z,14.23
2022-08-31T17:42:51.342Z,11.50
2022-08-31T17:45:21.688Z,16.08
2022-08-31T17:47:51.470Z,12.32
2022-08-31T17:50:21.643Z,12.35
2022-08-31T17:52:51.373Z,9.27
2022-08-31T17:55:23.040Z,11.77
2022-08-31T17:57:51.605Z,9.65
2022-08-31T18:00:20.592Z,15.32
2022-08-31T18:02:52.497Z,16.17
2022-08-31T18:05:23.436Z,13.32
2022-08-31T18:07:52.840Z,12.23
2022-08-31T18:10:22.513Z,12.10
2022-08-31T18:12:56.455Z,10.27
2022-08-31T18:15:24.953Z,9.68
2022-08-31T18:17:58.384Z,7.85
2022-08-31T18:20:28.755Z,12.32
2022-08-31T18:23:00.512Z,8.80
2022-08-31T18:25:34.467Z,8.15
2022-08-31T18:28:06.733Z,10.55
2022-08-31T18:30:39.306Z,9.95
2022-08-31T18:33:15.028Z,15.88
2022-08-31T18:35:48.453Z,11.30
2022-08-31T18:38:32.863Z,12.50
2022-08-31T18:41:28.659Z,16.30
2022-08-31T18:44:27.379Z,8.68
2022-08-31T18:47:11.616Z,8.45
2022-08-31T18:49:44.300Z,17.38
2022-08-31T18:52:24.749Z,11.95
2022-08-31T18:54:55.469Z,13.00
2022-08-31T18:57:26.316Z,13.20
2022-08-31T19:00:08.158Z,17.58
2022-08-31T19:02:42.934Z,8.55
2022-08-31T19:05:15.435Z,11.75
2022-08-31T19:08:03.716Z,13.10
2022-08-31T19:10:35.759Z,9.65
2022-08-31T19:13:19.908Z,17.98
2022-08-31T19:15:49.439Z,12.60
2022-08-31T19:18:22.900Z,11.00
2022-08-31T19:20:54.311Z,9.25
2022-08-31T19:23:28.191Z,14.45
2022-08-31T19:25:58.980Z,14.50
2022-08-31T19:28:36.586Z,12.13
2022-08-31T19:31:12.337Z,12.38
2022-08-31T19:33:42.489Z,9.10
2022-08-31T19:36:18.499Z,9.60
2022-08-31T19:38:50.590Z,7.82
2022-08-31T19:41:22.009Z,13.98
2022-08-31T19:44:04.113Z,16.08
2022-08-31T19:46:52.539Z,13.02
2022-08-31T19:49:25.018Z,11.85
2022-08-31T19:52:03.562Z,11.63
2022-08-31T19:54:37.570Z,11.40
2022-08-31T19:57:10.050Z,14.35
2022-08-31T19:59:38.508Z,13.55
2022-08-31T20:02:07.517Z,19.33
2022-08-31T20:04:39.169Z,15.85
2022-08-31T20:07:11.646Z,14.27
2022-08-31T20:10:02.516Z,11.70
2022-08-31T20:12:32.500Z,16.27
2022-08-31T20:15:02.552Z,17.92
2022-08-31T20:17:31.226Z,13.07
2022-08-31T20:20:03.174Z,16.25
2022-08-31T20:22:31.545Z,18.23
2022-08-31T20:25:07.972Z,18.20
2022-08-31T20:27:38.582Z,17.50
2022-08-31T20:30:09.647Z,13.63
2022-08-31T20:32:38.013Z,17.67
2022-08-31T20:35:07.176Z,16.23
2022-08-31T20:37:37.702Z,15.70
2022-08-31T20:40:10.491Z,15.43
2022-08-31T20:42:39.658Z,16.52
2022-08-31T20:45:08.567Z,13.75
2022-08-31T20:47:55.326Z,10.82
2022-08-31T20:50:23.774Z,19.65
2022-08-31T20:52:52.582Z,22.92
2022-08-31T20:55:22.383Z,16.90
2022-08-31T20:57:52.271Z,20.38
2022-08-31T21:00:22.271Z,16.15
2022-08-31T21:02:50.912Z,18.45
2022-08-31T21:05:37.781Z,17.42
2022-08-31T21:08:07.456Z,17.63
2022-08-31T21:10:37.723Z,15.38
2022-08-31T21:13:11.310Z,15.43
2022-08-31T21:15:44.325Z,14.07
2022-08-31T21:18:18.455Z,16.95
2022-08-31T21:20:47.692Z,12.07
2022-08-31T21:23:16.265Z,19.35
2022-08-31T21:25:46.082Z,10.48
2022-08-31T21:28:17.714Z,17.38
2022-08-31T21:30:49.743Z,13.38
2022-08-31T21:33:18.816Z,16.25
2022-08-31T21:35:48.092Z,10.13
2022-08-31T21:38:18.510Z,10.68
2022-08-31T21:40:51.531Z,19.02
2022-08-31T21:43:20.179Z,15.30
2022-08-31T21:45:50.268Z,18.67
2022-08-31T21:48:25.853Z,14.40
2022-08-31T21:50:55.240Z,19.23
2022-08-31T21:53:26.048Z,17.27
2022-08-31T21:55:55.064Z,13.10
2022-08-31T21:58:23.833Z,17.83
2022-08-31T22:00:52.904Z,20.20
2022-08-31T22:03:22.627Z,13.40
2022-08-31T22:05:50.951Z,13.05
2022-08-31T22:08:20.155Z,10.70
2022-08-31T22:10:49.326Z,16.05
2022-08-31T22:13:18.350Z,14.30
2022-08-31T22:15:48.204Z,29.38
2022-08-31T22:21:07.265Z,16.55
2022-08-31T22:23:35.921Z,25.27
2022-08-31T22:26:04.573Z,14.68
2022-08-31T22:28:34.278Z,18.70
2022-08-31T22:31:02.804Z,15.05
2022-08-31T22:33:31.485Z,23.92
2022-08-31T22:35:59.878Z,23.65
2022-08-31T22:38:28.299Z,22.92
2022-08-31T22:40:57.139Z,23.50
2022-08-31T22:43:25.457Z,20.50
2022-08-31T22:45:54.754Z,25.70
2022-08-31T22:48:23.225Z,26.25
2022-08-31T22:50:51.577Z,32.40
2022-08-31T22:53:20.455Z,27.27
2022-08-31T22:55:48.767Z,24.17
2022-08-31T22:58:17.156Z,28.35
2022-08-31T23:00:48.327Z,22.83
2022-08-31T23:03:16.879Z,25.23
2022-08-31T23:05:45.907Z,26.88
2022-08-31T23:08:15.984Z,25.38
2022-08-31T23:10:44.872Z,26.33
2022-08-31T23:13:13.872Z,23.50
2022-08-31T23:15:43.046Z,22.95
2022-08-31T23:18:13.667Z,24.80
2022-08-31T23:20:42.086Z,26.15
2022-08-31T23:23:10.680Z,21.95
2022-08-31T23:25:39.453Z,29.52
2022-08-31T23:28:08.909Z,26.50
2022-08-31T23:30:38.307Z,23.70
2022-08-31T23:33:07.729Z,21.17
2022-08-31T23:35:36.027Z,21.73
2022-08-31T23:38:04.948Z,25.90
2022-08-31T23:40:34.384Z,22.15
2022-08-31T23:43:04.212Z,34.38
2022-08-31T23:45:33.513Z,17.30
2022-08-31T23:48:01.970Z,21.08
2022-08-31T23:50:30.218Z,29.63
2022-08-31T23:52:58.965Z,22.23
2022-08-31T23:55:30.421Z,21.40
2022-08-31T23:57:59.451Z,20.15
